Time;durP1;ratioP1;P1;durP2;ratioP2;P2;SDS_P1;SDS_P2;PMS_P1;PMS_P2;Temp;Humidity;BMP_temperature;BMP_pressure;BME280_temperature;BME280_humidity;BME280_pressure;Samples;Min_cycle;Max_cycle;Signal;HPM_P1;HPM_P2
2022/07/28 00:00:35;;;;;;;2.20;0.68;;;11.10;99.90;;;;;;4910555;29;20495;-80
2022/07/28 00:03:01;;;;;;;1.98;0.43;;;11.20;99.90;;;;;;4903864;29;20054;-80
2022/07/28 00:05:27;;;;;;;2.67;0.40;;;11.30;99.90;;;;;;4920201;29;20133;-80
2022/07/28 00:07:53;;;;;;;2.22;0.50;;;11.30;99.90;;;;;;4910076;29;20127;-79
2022/07/28 00:10:18;;;;;;;1.33;0.50;;;11.40;99.90;;;;;;4911426;29;20107;-79
2022/07/28 00:12:44;;;;;;;1.10;0.40;;;11.50;99.90;;;;;;4921981;29;20039;-79
2022/07/28 00:15:10;;;;;;;2.40;0.55;;;11.50;99.90;;;;;;4922251;29;20080;-80
2022/07/28 00:17:36;;;;;;;2.45;0.63;;;11.50;99.90;;;;;;4919060;29;20063;-80
2022/07/28 00:20:03;;;;;;;2.00;0.45;;;11.40;99.90;;;;;;4909315;29;20048;-80
2022/07/28 00:22:28;;;;;;;1.40;0.47;;;11.40;99.90;;;;;;4904597;29;20047;-80
2022/07/28 00:24:54;;;;;;;1.48;0.40;;;11.40;99.90;;;;;;4921592;29;20043;-79
2022/07/28 00:27:19;;;;;;;1.92;0.55;;;11.30;99.90;;;;;;4919570;29;20035;-79
2022/07/28 00:29:45;;;;;;;3.05;0.60;;;11.30;99.90;;;;;;4939049;29;20051;-79
2022/07/28 00:32:11;;;;;;;1.50;0.57;;;11.20;99.90;;;;;;4907739;29;20457;-79
2022/07/28 00:34:36;;;;;;;2.45;1.02;;;11.20;99.90;;;;;;4920612;29;20051;-79
2022/07/28 00:37:02;;;;;;;1.60;0.70;;;11.10;99.90;;;;;;4915772;29;20087;-79
2022/07/28 00:39:27;;;;;;;3.83;0.70;;;11.10;99.90;;;;;;4916423;29;20434;-79
2022/07/28 00:41:53;;;;;;;1.75;0.77;;;11.10;99.90;;;;;;4922128;29;20071;-79
2022/07/28 00:44:19;;;;;;;2.65;0.65;;;11.10;99.90;;;;;;4922084;29;20475;-79
2022/07/28 00:46:44;;;;;;;2.38;0.70;;;11.00;99.90;;;;;;4916468;29;20517;-79
2022/07/28 00:49:12;;;;;;;2.72;0.85;;;11.00;99.90;;;;;;4894876;29;20392;-79
2022/07/28 00:51:39;;;;;;;3.65;0.90;;;10.90;99.90;;;;;;4884828;29;20040;-79
2022/07/28 00:54:04;;;;;;;2.53;0.75;;;10.80;99.90;;;;;;4898873;29;20075;-79
2022/07/28 00:56:31;;;;;;;2.20;0.90;;;10.60;99.90;;;;;;4907548;29;20495;-80
2022/07/28 00:58:57;;;;;;;2.35;0.68;;;10.50;99.90;;;;;;4916526;29;20062;-80
2022/07/28 01:01:23;;;;;;;2.45;0.40;;;10.40;99.90;;;;;;4902467;29;20043;-80
2022/07/28 01:03:53;;;;;;;2.42;0.20;;;10.30;99.90;;;;;;4889578;29;20070;-80
2022/07/28 01:06:31;;;;;;;0.98;0.40;;;10.30;99.90;;;;;;4917309;29;20050;-80
2022/07/28 01:09:35;;;;;;;2.70;0.40;;;10.20;99.90;;;;;;4909845;29;20044;-80
2022/07/28 01:12:11;;;;;;;1.70;0.52;;;10.10;99.90;;;;;;4869796;29;20059;-80
2022/07/28 01:14:48;;;;;;;2.35;0.60;;;10.00;99.90;;;;;;4888173;29;20139;-80
2022/07/28 01:17:48;;;;;;;2.28;0.93;;;9.90;99.90;;;;;;4913082;29;20050;-80
2022/07/28 01:20:41;;;;;;;2.67;0.63;;;9.90;99.90;;;;;;4885885;29;20056;-80
2022/07/28 01:23:42;;;;;;;2.40;0.85;;;9.90;99.90;;;;;;4889797;29;20072;-79
2022/07/28 01:26:41;;;;;;;2.28;1.08;;;10.00;99.90;;;;;;4892382;29;20032;-80
2022/07/28 01:29:10;;;;;;;1.65;0.60;;;10.00;99.90;;;;;;4936034;23;20854;-84
2022/07/28 01:31:41;;;;;;;2.13;0.77;;;10.00;99.90;;;;;;4899072;29;20046;-83
2022/07/28 01:34:15;;;;;;;1.83;0.98;;;10.10;99.90;;;;;;4914818;29;20052;-83
2022/07/28 01:36:50;;;;;;;1.77;0.75;;;10.10;99.90;;;;;;4912837;29;20058;-84
2022/07/28 01:39:17;;;;;;;;;;;10.20;99.90;;;;;;4895983;29;20067;-83
2022/07/28 01:41:43;;;;;;;4.85;1.90;;;10.20;99.90;;;;;;4880359;29;20306;-83
2022/07/28 01:44:13;;;;;;;2.97;0.80;;;10.10;99.90;;;;;;4879848;29;20079;-83
2022/07/28 01:46:42;;;;;;;4.53;1.00;;;10.10;99.90;;;;;;4887101;29;20040;-85
2022/07/28 01:49:09;;;;;;;2.15;0.73;;;10.20;99.90;;;;;;4898463;29;20036;-86
2022/07/28 01:51:36;;;;;;;8.10;0.95;;;10.20;99.90;;;;;;4898206;29;20402;-85
2022/07/28 01:54:04;;;;;;;3.85;1.05;;;10.20;99.90;;;;;;4880226;29;20051;-85
2022/07/28 01:56:32;;;;;;;2.33;0.52;;;10.20;99.90;;;;;;4889465;29;20052;-85
2022/07/28 01:59:04;;;;;;;2.28;1.05;;;10.20;99.90;;;;;;4895562;29;20036;-85
2022/07/28 02:01:34;;;;;;;2.05;0.80;;;10.20;99.90;;;;;;4898184;29;20040;-85
2022/07/28 02:04:02;;;;;;;3.75;0.70;;;10.20;99.90;;;;;;4899130;29;20032;-85
2022/07/28 02:06:28;;;;;;;2.92;0.52;;;10.20;99.90;;;;;;4898694;29;20037;-85
2022/07/28 02:08:55;;;;;;;4.10;0.80;;;10.20;99.90;;;;;;4890297;29;20028;-85
2022/07/28 02:11:39;;;;;;;2.53;1.02;;;10.20;99.90;;;;;;4903041;29;20535;-85
2022/07/28 02:14:11;;;;;;;1.85;0.70;;;10.20;99.90;;;;;;4905114;29;20355;-85
2022/07/28 02:16:40;;;;;;;6.07;1.48;;;10.10;99.90;;;;;;4870254;29;20045;-86
2022/07/28 02:19:06;;;;;;;1.80;0.73;;;10.20;99.90;;;;;;4887593;29;20114;-85
2022/07/28 02:21:33;;;;;;;2.25;1.00;;;10.20;99.90;;;;;;4904727;29;20130;-85
2022/07/28 02:23:59;;;;;;;3.45;0.93;;;10.20;99.90;;;;;;4889497;29;20040;-86
2022/07/28 02:26:31;;;;;;;2.28;0.52;;;10.20;99.90;;;;;;4891538;29;20487;-84
2022/07/28 02:29:00;;;;;;;4.35;1.40;;;10.20;99.90;;;;;;4904119;29;20036;-85
2022/07/28 02:31:30;;;;;;;2.75;0.63;;;10.20;99.90;;;;;;4905082;29;20155;-85
2022/07/28 02:33:59;;;;;;;2.83;0.85;;;10.20;99.90;;;;;;4905007;29;20566;-85
2022/07/28 02:36:27;;;;;;;4.82;0.80;;;10.20;99.90;;;;;;4912847;29;20050;-85
2022/07/28 02:38:57;;;;;;;4.32;1.05;;;10.20;99.90;;;;;;4897585;29;20047;-84
2022/07/28 02:41:28;;;;;;;1.95;0.90;;;10.20;99.90;;;;;;4905302;29;20044;-85
2022/07/28 02:44:02;;;;;;;1.70;0.47;;;10.20;99.90;;;;;;4906641;29;20088;-85
2022/07/28 02:46:42;;;;;;;2.83;0.75;;;10.20;99.90;;;;;;4878083;29;20036;-85
2022/07/28 02:49:13;;;;;;;2.63;0.50;;;10.20;99.90;;;;;;4905824;29;20036;-83
2022/07/28 02:51:41;;;;;;;3.00;0.70;;;10.10;99.90;;;;;;4905564;29;20048;-83
2022/07/28 02:54:07;;;;;;;2.13;0.90;;;10.20;99.90;;;;;;4906913;29;20040;-83
2022/07/28 02:56:34;;;;;;;2.40;0.93;;;10.20;99.90;;;;;;4896172;29;20112;-83
2022/07/28 02:59:01;;;;;;;0.95;0.50;;;10.10;99.90;;;;;;4899375;29;20406;-83
2022/07/28 03:01:27;;;;;;;1.92;0.70;;;10.10;99.90;;;;;;4852901;29;20078;-83
2022/07/28 03:03:53;;;;;;;1.75;0.90;;;10.10;99.90;;;;;;4869779;29;20404;-83
2022/07/28 03:06:21;;;;;;;1.10;0.50;;;10.00;99.90;;;;;;4877389;29;20052;-83
2022/07/28 03:08:49;;;;;;;2.75;0.70;;;10.00;99.90;;;;;;4897943;29;20050;-83
2022/07/28 03:11:15;;;;;;;1.30;0.57;;;10.00;99.90;;;;;;4908460;29;20088;-83
2022/07/28 03:13:41;;;;;;;3.30;0.40;;;9.90;99.90;;;;;;4900263;29;20075;-83
2022/07/28 03:16:08;;;;;;;2.28;1.00;;;9.80;99.90;;;;;;4887414;29;20044;-83
2022/07/28 03:18:34;;;;;;;1.92;0.98;;;9.80;99.90;;;;;;4894550;29;20044;-83
2022/07/28 03:20:59;;;;;;;1.00;0.50;;;9.70;99.90;;;;;;4903988;29;20131;-83
2022/07/28 03:23:39;;;;;;;3.00;0.50;;;9.60;99.90;;;;;;4920345;29;20306;-83
2022/07/28 03:26:08;;;;;;;1.95;0.70;;;9.60;99.90;;;;;;4909292;29;20152;-83
2022/07/28 03:28:35;;;;;;;2.83;0.60;;;9.50;99.90;;;;;;4901530;29;20499;-83
2022/07/28 03:31:08;;;;;;;1.95;0.93;;;9.50;99.90;;;;;;4877052;29;20056;-83
2022/07/28 03:33:33;;;;;;;2.00;0.85;;;9.40;99.90;;;;;;4866790;29;20056;-83
2022/07/28 03:36:05;;;;;;;1.90;0.80;;;9.40;99.90;;;;;;4862245;29;20040;-82
2022/07/28 03:38:47;;;;;;;1.83;0.75;;;9.40;99.90;;;;;;4904107;29;20102;-82
2022/07/28 03:41:15;;;;;;;1.10;0.50;;;9.40;99.90;;;;;;4889455;29;20048;-82
2022/07/28 03:43:43;;;;;;;1.90;0.70;;;9.30;99.90;;;;;;4903320;29;20396;-82
2022/07/28 03:46:08;;;;;;;1.33;0.60;;;9.30;99.90;;;;;;4900997;29;20122;-82
2022/07/28 03:48:34;;;;;;;2.90;0.65;;;9.30;99.90;;;;;;4902185;29;20071;-82
2022/07/28 03:51:00;;;;;;;0.90;0.40;;;9.30;99.90;;;;;;4895940;29;20099;-82
2022/07/28 03:53:28;;;;;;;1.40;0.60;;;9.30;99.90;;;;;;4904124;29;20087;-83
2022/07/28 03:55:54;;;;;;;2.50;0.50;;;9.30;99.90;;;;;;4902435;29;20048;-82
2022/07/28 03:58:21;;;;;;;1.13;0.73;;;9.40;99.90;;;;;;4904290;29;20040;-82
2022/07/28 04:00:48;;;;;;;2.97;0.77;;;9.30;99.90;;;;;;4904367;29;20387;-82
2022/07/28 04:03:14;;;;;;;4.28;0.85;;;9.30;99.90;;;;;;4892065;29;20037;-82
2022/07/28 04:05:39;;;;;;;6.63;1.25;;;9.20;99.90;;;;;;4870702;29;20032;-82
2022/07/28 04:08:05;;;;;;;4.72;0.65;;;9.20;99.90;;;;;;4902718;29;20043;-83
2022/07/28 04:10:31;;;;;;;4.45;1.42;;;9.20;99.90;;;;;;4901807;29;20034;-83
2022/07/28 04:12:59;;;;;;;3.10;1.02;;;9.20;99.90;;;;;;4901126;29;20044;-82
2022/07/28 04:15:26;;;;;;;2.90;1.00;;;9.30;99.90;;;;;;4899563;29;20050;-83
2022/07/28 04:17:53;;;;;;;3.60;1.25;;;9.30;99.90;;;;;;4870127;29;20052;-82
2022/07/28 04:20:20;;;;;;;5.05;0.93;;;9.30;99.90;;;;;;4906853;29;20044;-83
2022/07/28 04:22:47;;;;;;;1.70;0.50;;;9.30;99.90;;;;;;4866445;29;20048;-82
2022/07/28 04:25:15;;;;;;;3.28;0.47;;;9.20;99.90;;;;;;4883514;29;20347;-82
2022/07/28 04:27:42;;;;;;;3.22;0.95;;;9.20;99.90;;;;;;4899810;29;20036;-82
2022/07/28 04:30:12;;;;;;;5.05;0.70;;;9.20;99.90;;;;;;4901954;29;20052;-83
2022/07/28 04:32:41;;;;;;;3.75;0.50;;;9.20;99.90;;;;;;4900380;29;20064;-82
2022/07/28 04:35:08;;;;;;;3.97;1.95;;;9.20;99.90;;;;;;4894804;29;20103;-83
2022/07/28 04:37:33;;;;;;;1.50;0.98;;;9.30;99.90;;;;;;4897309;29;20411;-83
2022/07/28 04:39:59;;;;;;;4.88;1.10;;;9.20;99.90;;;;;;4900399;29;20055;-83
2022/07/28 04:42:25;;;;;;;4.57;1.08;;;9.20;99.90;;;;;;4900185;29;20044;-83
2022/07/28 04:44:51;;;;;;;2.45;0.60;;;9.30;99.90;;;;;;4890939;29;20044;-83
2022/07/28 04:47:16;;;;;;;3.78;0.70;;;9.30;99.90;;;;;;4895861;29;20036;-83
2022/07/28 04:49:42;;;;;;;1.77;0.50;;;9.30;99.90;;;;;;4899740;29;20040;-83
2022/07/28 04:52:08;;;;;;;2.72;0.90;;;9.40;99.90;;;;;;4899750;29;20044;-82
2022/07/28 04:54:35;;;;;;;4.53;0.75;;;9.50;99.90;;;;;;4860694;29;20464;-84
2022/07/28 04:57:01;;;;;;;3.92;1.23;;;9.60;99.90;;;;;;4899262;29;20044;-84
2022/07/28 04:59:26;;;;;;;2.17;0.82;;;9.70;99.90;;;;;;4898783;29;20062;-84
2022/07/28 05:01:52;;;;;;;3.03;1.00;;;9.80;99.90;;;;;;4899191;29;20108;-84
2022/07/28 05:04:18;;;;;;;3.47;0.80;;;9.90;99.90;;;;;;4895250;29;20073;-85
2022/07/28 05:06:44;;;;;;;4.50;0.98;;;10.00;99.90;;;;;;4898116;29;20084;-84
2022/07/28 05:09:09;;;;;;;5.55;0.95;;;10.00;99.90;;;;;;4865554;29;20045;-84
2022/07/28 05:11:35;;;;;;;5.88;1.67;;;10.10;99.90;;;;;;4861534;29;20074;-84
2022/07/28 05:14:01;;;;;;;5.72;0.95;;;10.10;99.90;;;;;;4890187;29;20119;-85
2022/07/28 05:16:26;;;;;;;3.30;0.60;;;10.30;99.90;;;;;;4895637;29;20157;-84
2022/07/28 05:18:52;;;;;;;2.90;1.08;;;10.30;99.90;;;;;;4898628;29;20053;-83
2022/07/28 05:21:18;;;;;;;2.55;0.90;;;10.50;99.90;;;;;;4898471;29;20131;-83
2022/07/28 05:23:43;;;;;;;3.80;1.15;;;10.60;99.90;;;;;;4897777;29;20554;-83
2022/07/28 05:26:09;;;;;;;4.90;0.80;;;10.70;99.90;;;;;;4892736;29;20075;-83
2022/07/28 05:28:34;;;;;;;4.03;1.08;;;10.80;99.90;;;;;;4882715;29;20090;-83
2022/07/28 05:31:00;;;;;;;2.03;1.33;;;10.90;99.90;;;;;;4898000;29;20391;-83
2022/07/28 05:33:26;;;;;;;2.55;0.93;;;11.00;99.90;;;;;;4898427;29;20403;-83
2022/07/28 05:35:56;;;;;;;4.32;1.40;;;11.10;99.90;;;;;;4877648;29;20071;-83
2022/07/28 05:38:22;;;;;;;4.78;1.42;;;11.20;99.90;;;;;;4897852;29;20462;-83
2022/07/28 05:40:48;;;;;;;5.60;1.13;;;11.20;99.90;;;;;;4911736;29;20036;-83
2022/07/28 05:43:14;;;;;;;6.35;1.00;;;11.30;99.90;;;;;;4878693;29;20040;-83
2022/07/28 05:45:40;;;;;;;4.65;1.25;;;11.40;99.90;;;;;;4886738;29;20167;-83
2022/07/28 05:48:06;;;;;;;5.53;1.02;;;11.50;99.90;;;;;;4897816;29;20462;-84
2022/07/28 05:50:32;;;;;;;7.57;1.25;;;11.70;99.90;;;;;;4882428;29;20040;-84
2022/07/28 05:52:57;;;;;;;5.70;1.88;;;11.90;99.90;;;;;;4899726;29;20400;-85
2022/07/28 05:55:23;;;;;;;6.53;1.00;;;12.00;99.90;;;;;;4872871;29;20128;-84
2022/07/28 05:57:49;;;;;;;8.40;2.47;;;12.20;99.90;;;;;;4894463;29;20407;-85
2022/07/28 06:00:20;;;;;;;6.10;2.47;;;12.40;99.90;;;;;;4880071;29;20048;-84
2022/07/28 06:02:50;;;;;;;4.88;2.53;;;12.40;99.90;;;;;;4882827;29;20054;-85
2022/07/28 06:05:18;;;;;;;9.32;5.40;;;12.60;99.90;;;;;;4889608;29;20036;-84
2022/07/28 06:07:45;;;;;;;9.30;4.07;;;12.80;99.90;;;;;;4898773;29;20107;-84
2022/07/28 06:10:13;;;;;;;8.07;2.72;;;12.90;99.90;;;;;;4898381;29;20067;-85
2022/07/28 06:12:46;;;;;;;4.22;2.53;;;13.00;99.90;;;;;;4898805;29;20056;-85
2022/07/28 06:15:17;;;;;;;6.93;3.00;;;13.10;99.90;;;;;;4905907;29;20047;-84
2022/07/28 06:17:43;;;;;;;11.23;3.35;;;13.20;99.90;;;;;;4891112;29;20108;-83
2022/07/28 06:20:10;;;;;;;6.07;2.70;;;13.40;99.90;;;;;;4916252;29;20418;-85
2022/07/28 06:22:43;;;;;;;9.73;2.50;;;13.60;99.90;;;;;;4898957;29;20044;-84
2022/07/28 06:25:13;;;;;;;8.40;2.17;;;13.80;99.90;;;;;;4906375;29;20047;-85
2022/07/28 06:27:38;;;;;;;5.40;2.38;;;14.00;99.90;;;;;;4908530;29;20044;-84
2022/07/28 06:30:04;;;;;;;5.00;1.40;;;14.20;99.90;;;;;;4898142;29;20044;-85
2022/07/28 06:32:30;;;;;;;6.47;2.25;;;14.40;99.90;;;;;;4857192;29;20049;-84
2022/07/28 06:34:55;;;;;;;2.30;1.30;;;14.50;99.90;;;;;;4882244;29;20051;-85
2022/07/28 06:37:21;;;;;;;3.63;1.52;;;14.80;99.90;;;;;;4897619;29;20139;-85
2022/07/28 06:39:46;;;;;;;6.00;2.10;;;15.10;99.90;;;;;;4866385;29;20044;-85
2022/07/28 06:42:12;;;;;;;5.32;1.73;;;15.20;99.90;;;;;;4887835;29;20099;-85
2022/07/28 06:44:38;;;;;;;9.38;2.72;;;15.60;99.90;;;;;;4890232;29;20044;-86
2022/07/28 06:47:03;;;;;;;6.28;2.03;;;15.80;99.90;;;;;;4896588;29;20029;-85
2022/07/28 06:49:29;;;;;;;5.72;1.40;;;16.00;99.90;;;;;;4845841;29;20073;-85
2022/07/28 06:51:55;;;;;;;10.80;2.10;;;16.10;99.90;;;;;;4884894;29;20043;-85
2022/07/28 06:54:20;;;;;;;3.40;0.98;;;16.40;99.90;;;;;;4894710;29;20036;-85
2022/07/28 06:56:46;;;;;;;4.43;0.65;;;16.50;99.90;;;;;;4887651;29;20578;-86
2022/07/28 06:59:14;;;;;;;2.08;0.70;;;16.60;99.90;;;;;;4895598;29;20123;-84
2022/07/28 07:01:39;;;;;;;6.20;0.40;;;16.80;99.90;;;;;;4890201;29;20048;-85
2022/07/28 07:04:07;;;;;;;1.20;0.25;;;16.90;99.90;;;;;;4896583;29;20800;-86
2022/07/28 07:06:32;;;;;;;2.78;0.20;;;17.00;99.90;;;;;;4898411;29;20075;-86
2022/07/28 07:08:58;;;;;;;3.40;0.57;;;17.20;99.90;;;;;;4914863;29;20123;-84
2022/07/28 07:11:25;;;;;;;5.38;0.30;;;17.50;99.90;;;;;;4893056;29;20097;-84
2022/07/28 07:13:51;;;;;;;5.28;0.75;;;17.70;99.90;;;;;;4895113;29;20044;-85
2022/07/28 07:16:17;;;;;;;1.08;0.20;;;17.60;99.90;;;;;;4878103;29;20051;-84
2022/07/28 07:18:43;;;;;;;0.85;0.43;;;17.90;99.90;;;;;;4906321;29;20099;-84
2022/07/28 07:21:08;;;;;;;3.28;0.30;;;18.20;99.90;;;;;;4900650;29;20418;-84
2022/07/28 07:23:34;;;;;;;3.35;0.70;;;18.40;99.90;;;;;;4901159;29;20126;-84
2022/07/28 07:26:00;;;;;;;1.20;0.20;;;18.50;99.90;;;;;;4894722;29;20048;-84
2022/07/28 07:28:26;;;;;;;2.20;0.40;;;18.50;99.90;;;;;;4887211;29;20064;-84
2022/07/28 07:30:51;;;;;;;0.85;0.25;;;18.70;99.90;;;;;;4863749;29;20477;-80
2022/07/28 07:33:17;;;;;;;1.88;0.20;;;18.90;99.90;;;;;;4863489;29;20133;-80
2022/07/28 07:35:42;;;;;;;1.20;0.20;;;19.00;99.90;;;;;;4885019;29;20071;-80
2022/07/28 07:38:08;;;;;;;51.58;29.98;;;19.30;99.90;;;;;;4901898;29;20040;-81
2022/07/28 07:40:34;;;;;;;9.38;5.15;;;19.60;99.90;;;;;;4898417;29;20124;-81
2022/07/28 07:42:59;;;;;;;8.45;3.85;;;19.70;99.90;;;;;;4900922;29;20051;-79
2022/07/28 07:45:25;;;;;;;362.95;238.10;;;19.60;99.90;;;;;;4895532;29;20055;-81
2022/07/28 07:47:51;;;;;;;44.50;29.52;;;19.60;99.90;;;;;;4904513;29;20131;-81
2022/07/28 07:50:17;;;;;;;13.80;9.05;;;19.80;99.90;;;;;;4888749;29;20104;-83
2022/07/28 07:52:42;;;;;;;11.80;5.90;;;19.90;99.90;;;;;;4908021;29;20055;-82
2022/07/28 07:55:08;;;;;;;3.70;0.50;;;20.10;99.90;;;;;;4883181;29;20044;-82
2022/07/28 07:57:34;;;;;;;1.30;0.30;;;20.20;99.90;;;;;;4882720;29;20048;-83
2022/07/28 07:59:59;;;;;;;1.38;0.20;;;20.20;99.90;;;;;;4875676;29;20707;-83
2022/07/28 08:02:25;;;;;;;3.10;0.30;;;20.20;99.90;;;;;;4876065;29;20519;-80
2022/07/28 08:04:50;;;;;;;4.05;0.20;;;20.20;99.90;;;;;;4877047;29;20032;-79
2022/07/28 08:07:16;;;;;;;1.02;0.30;;;20.50;99.90;;;;;;4895620;29;20088;-80
2022/07/28 08:09:42;;;;;;;1.52;0.32;;;20.60;99.90;;;;;;4902193;29;20047;-82
2022/07/28 08:12:07;;;;;;;0.70;0.20;;;20.30;99.90;;;;;;4897248;29;20083;-82
2022/07/28 08:14:33;;;;;;;4.03;0.30;;;20.30;99.90;;;;;;4883123;29;20052;-82
2022/07/28 08:16:59;;;;;;;4.72;0.25;;;20.70;99.70;;;;;;4877814;29;20127;-80
2022/07/28 08:19:25;;;;;;;5.25;0.38;;;21.20;98.70;;;;;;4890904;29;20045;-82
2022/07/28 08:21:51;;;;;;;1.15;0.30;;;21.20;97.30;;;;;;4881006;29;20479;-81
2022/07/28 08:24:16;;;;;;;1.58;0.20;;;21.20;96.10;;;;;;4871496;29;20041;-80
2022/07/28 08:26:42;;;;;;;0.93;0.10;;;21.20;96.80;;;;;;4886053;29;20072;-79
2022/07/28 08:29:08;;;;;;;2.47;0.20;;;21.10;96.50;;;;;;4905265;29;20040;-80
2022/07/28 08:31:33;;;;;;;1.63;0.20;;;21.00;95.70;;;;;;4885467;29;20064;-81
2022/07/28 08:33:59;;;;;;;1.63;0.30;;;20.80;95.70;;;;;;4893262;29;20480;-80
2022/07/28 08:36:25;;;;;;;1.52;0.20;;;20.60;96.70;;;;;;4878309;29;20076;-79
2022/07/28 08:38:51;;;;;;;3.80;0.13;;;20.70;96.80;;;;;;4886109;29;20550;-81
2022/07/28 08:41:35;;;;;;;1.92;0.20;;;20.90;95.80;;;;;;4890383;29;21485;-80
2022/07/28 08:44:02;;;;;;;3.90;0.23;;;21.10;94.60;;;;;;4888223;29;20032;-80
2022/07/28 08:46:36;;;;;;;2.97;0.22;;;21.20;95.00;;;;;;4879550;29;20334;-80
2022/07/28 08:49:07;;;;;;;2.03;0.43;;;21.30;95.00;;;;;;4876165;29;20072;-80
2022/07/28 08:51:33;;;;;;;6.03;0.95;;;21.30;95.70;;;;;;4878622;29;20432;-79
2022/07/28 08:54:00;;;;;;;1.85;0.45;;;21.20;95.70;;;;;;4889082;29;20044;-80
2022/07/28 08:56:26;;;;;;;1.08;0.20;;;20.90;95.70;;;;;;4874525;29;20123;-80
2022/07/28 08:58:52;;;;;;;2.10;0.25;;;20.60;96.40;;;;;;4893391;29;20052;-78
2022/07/28 09:01:18;;;;;;;2.47;0.20;;;20.40;97.30;;;;;;4901124;29;20044;-80
2022/07/28 09:03:44;;;;;;;2.80;0.45;;;20.30;97.80;;;;;;4904309;29;20048;-80
2022/07/28 09:06:10;;;;;;;1.95;0.43;;;20.30;98.10;;;;;;4896348;29;20040;-79
2022/07/28 09:08:36;;;;;;;1.92;0.20;;;20.40;97.60;;;;;;4908691;29;20442;-78
2022/07/28 09:11:01;;;;;;;5.32;0.20;;;20.30;97.20;;;;;;4895899;29;20051;-81
2022/07/28 09:13:27;;;;;;;1.67;0.35;;;20.40;97.40;;;;;;4904559;29;20084;-79
2022/07/28 09:15:53;;;;;;;2.47;0.20;;;20.60;96.90;;;;;;4895685;29;20041;-80
2022/07/28 09:18:19;;;;;;;1.25;0.30;;;20.70;96.40;;;;;;4903459;29;20055;-79
2022/07/28 09:20:45;;;;;;;4.50;0.57;;;20.60;96.20;;;;;;4903125;29;20091;-80
2022/07/28 09:23:12;;;;;;;2.63;0.30;;;20.50;95.80;;;;;;4882331;29;20048;-80
2022/07/28 09:25:37;;;;;;;2.45;0.15;;;20.50;96.20;;;;;;4887979;29;20502;-80
2022/07/28 09:28:09;;;;;;;1.00;0.30;;;20.60;96.00;;;;;;4898970;29;20041;-80
2022/07/28 09:30:39;;;;;;;2.05;0.20;;;20.50;96.10;;;;;;4893123;29;20040;-80
2022/07/28 09:33:17;;;;;;;1.95;0.20;;;20.40;96.10;;;;;;4895917;29;20039;-80
2022/07/28 09:35:49;;;;;;;4.47;0.40;;;20.40;96.10;;;;;;4885912;29;20052;-80
2022/07/28 09:38:15;;;;;;;3.05;1.00;;;20.40;96.40;;;;;;4894487;29;20095;-81
2022/07/28 09:40:42;;;;;;;1.95;0.30;;;20.30;96.10;;;;;;4883030;29;20068;-81
2022/07/28 09:43:10;;;;;;;2.22;0.20;;;20.40;96.10;;;;;;4884948;29;20071;-79
2022/07/28 09:45:36;;;;;;;2.53;0.20;;;20.70;96.00;;;;;;4885413;29;20056;-80
2022/07/28 09:48:10;;;;;;;5.10;0.25;;;20.90;95.60;;;;;;4883497;29;20041;-81
2022/07/28 09:50:36;;;;;;;1.30;0.20;;;21.00;95.20;;;;;;4877883;29;20562;-80
2022/07/28 09:53:26;;;;;;;1.52;0.10;;;20.80;95.10;;;;;;4871138;29;20052;-81
2022/07/28 09:56:00;;;;;;;2.83;0.30;;;20.70;94.60;;;;;;4901195;29;20337;-81
2022/07/28 09:58:29;;;;;;;1.30;0.20;;;20.50;95.50;;;;;;4892027;29;20040;-81
2022/07/28 10:01:11;;;;;;;2.75;0.20;;;20.50;95.80;;;;;;4888632;29;20033;-81
2022/07/28 10:03:42;;;;;;;2.28;0.20;;;20.60;96.30;;;;;;4885928;29;20048;-81
2022/07/28 10:06:13;;;;;;;1.45;0.10;;;20.60;96.50;;;;;;4887250;29;20040;-81
2022/07/28 10:08:46;;;;;;;0.63;0.17;;;20.50;94.50;;;;;;4868320;29;20100;-80
2022/07/28 10:11:19;;;;;;;1.48;0.20;;;20.40;94.30;;;;;;4900520;29;20083;-81
2022/07/28 10:13:51;;;;;;;1.67;0.10;;;20.40;95.00;;;;;;4891689;29;20039;-81
2022/07/28 10:16:17;;;;;;;2.88;0.52;;;20.50;94.70;;;;;;4879120;29;20048;-79
2022/07/28 10:18:43;;;;;;;1.85;0.45;;;20.60;94.50;;;;;;4880243;29;20164;-79
2022/07/28 10:21:14;;;;;;;1.02;0.60;;;20.80;94.30;;;;;;4879819;29;20468;-79
2022/07/28 10:23:47;;;;;;;0.40;0.10;;;20.90;94.00;;;;;;4893931;29;20078;-79
2022/07/28 10:26:14;;;;;;;2.88;0.75;;;21.10;94.00;;;;;;4883645;29;20152;-80
2022/07/28 10:28:46;;;;;;;1.83;0.20;;;21.10;93.10;;;;;;4895923;29;20053;-80
2022/07/28 10:31:16;;;;;;;2.05;0.10;;;21.10;92.90;;;;;;4904768;29;20040;-80
2022/07/28 10:33:49;;;;;;;0.52;0.10;;;21.00;92.40;;;;;;4916675;29;20045;-80
2022/07/28 10:36:17;;;;;;;0.50;0.10;;;21.00;93.10;;;;;;4904203;29;20059;-80
2022/07/28 10:38:43;;;;;;;3.65;0.50;;;21.10;93.20;;;;;;4904010;29;20051;-80
2022/07/28 10:41:11;;;;;;;2.45;0.30;;;21.10;93.30;;;;;;4900600;29;20045;-80
2022/07/28 10:43:38;;;;;;;8.23;0.70;;;21.20;92.90;;;;;;4872609;29;20076;-80
2022/07/28 10:46:04;;;;;;;1.58;0.50;;;21.20;92.30;;;;;;4888776;29;20071;-80
2022/07/28 10:48:30;;;;;;;1.67;0.30;;;21.20;92.60;;;;;;4882575;29;20517;-80
2022/07/28 10:50:58;;;;;;;1.85;0.25;;;21.50;93.20;;;;;;4905518;29;20040;-80
2022/07/28 10:53:42;;;;;;;1.52;0.10;;;21.80;92.10;;;;;;4920280;29;20092;-80
2022/07/28 10:56:37;;;;;;;0.73;0.10;;;22.50;89.60;;;;;;4882920;29;20064;-81
2022/07/28 10:59:18;;;;;;;2.00;0.20;;;23.10;87.80;;;;;;4899863;29;20303;-80
2022/07/28 11:01:44;;;;;;;1.23;0.40;;;23.00;86.80;;;;;;4880417;29;20084;-80
2022/07/28 11:04:46;;;;;;;1.85;0.15;;;22.80;87.00;;;;;;4885160;29;20075;-80
2022/07/28 11:07:16;;;;;;;0.60;0.15;;;22.60;84.10;;;;;;4884486;29;20103;-80
2022/07/28 11:09:43;;;;;;;2.22;0.20;;;22.40;84.80;;;;;;4893057;29;20130;-80
2022/07/28 11:12:14;;;;;;;2.45;0.20;;;22.70;85.80;;;;;;4903057;29;20055;-80
2022/07/28 11:14:41;;;;;;;0.75;0.10;;;22.90;84.80;;;;;;4896709;29;20052;-80
2022/07/28 11:17:06;;;;;;;1.33;0.30;;;23.10;82.90;;;;;;4904933;29;20075;-80
2022/07/28 11:19:44;;;;;;;0.98;0.10;;;23.20;81.10;;;;;;4899571;29;20050;-81
2022/07/28 11:25:03;;;;;;;0.68;0.10;;;23.90;76.50;;;;;;4893925;29;20052;-80
2022/07/28 11:27:50;;;;;;;1.25;0.10;;;24.00;74.70;;;;;;4887596;29;20052;-81
2022/07/28 11:30:30;;;;;;;1.05;0.10;;;24.20;71.60;;;;;;4899144;29;20077;-80
2022/07/28 11:32:56;;;;;;;0.50;0.13;;;24.30;70.20;;;;;;4871726;29;20091;-81
2022/07/28 11:35:25;;;;;;;0.82;0.10;;;24.20;72.90;;;;;;4871147;29;20045;-80
2022/07/28 11:38:00;;;;;;;1.38;0.10;;;24.50;71.60;;;;;;4871077;29;20049;-82
2022/07/28 11:40:29;;;;;;;;;;;24.60;68.40;;;;;;4913602;29;20080;-82
2022/07/28 11:43:21;;;;;;;1.83;0.10;;;24.70;69.50;;;;;;4903070;29;20002;-81
2022/07/28 11:45:48;;;;;;;0.90;0.10;;;24.80;67.20;;;;;;4888933;29;20096;-82
2022/07/28 11:48:15;;;;;;;1.05;0.10;;;24.50;67.90;;;;;;4916557;29;20514;-81
2022/07/28 11:50:41;;;;;;;3.58;0.40;;;24.40;67.90;;;;;;4891733;29;20053;-81
2022/07/28 11:53:08;;;;;;;2.25;0.50;;;24.50;66.90;;;;;;4908580;29;20044;-81
2022/07/28 11:55:34;;;;;;;1.85;0.10;;;24.70;67.80;;;;;;4904859;29;20055;-81
2022/07/28 11:58:05;;;;;;;1.15;0.25;;;24.60;64.90;;;;;;4899457;29;20450;-80
2022/07/28 12:00:30;;;;;;;0.50;0.20;;;24.60;64.40;;;;;;4886178;29;20056;-81
2022/07/28 12:02:56;;;;;;;0.73;0.10;;;24.50;65.30;;;;;;4902852;29;20037;-81
2022/07/28 12:05:22;;;;;;;1.70;0.10;;;24.30;63.90;;;;;;4888294;29;20481;-81
2022/07/28 12:07:50;;;;;;;0.80;0.10;;;24.10;65.50;;;;;;4891324;29;20044;-81
2022/07/28 12:10:31;;;;;;;0.93;0.10;;;24.00;65.40;;;;;;4907980;29;20051;-82
2022/07/28 12:12:59;;;;;;;1.42;0.20;;;24.10;65.90;;;;;;4905163;29;20052;-81
2022/07/28 12:15:26;;;;;;;1.27;0.13;;;24.40;66.70;;;;;;4886179;29;20132;-82
2022/07/28 12:17:52;;;;;;;2.22;0.38;;;25.10;66.40;;;;;;4884344;29;20040;-82
2022/07/28 12:20:18;;;;;;;1.88;0.20;;;25.70;65.30;;;;;;4867978;29;20172;-82
2022/07/28 12:22:58;;;;;;;1.10;0.20;;;26.10;63.30;;;;;;4887402;29;20040;-81
2022/07/28 12:25:24;;;;;;;2.05;0.10;;;26.30;63.50;;;;;;4889435;29;20124;-81
2022/07/28 12:27:49;;;;;;;1.67;0.15;;;26.00;63.50;;;;;;4907708;29;20071;-82
2022/07/28 12:30:27;;;;;;;1.30;0.10;;;25.80;63.90;;;;;;4898244;29;20086;-82
2022/07/28 12:32:53;;;;;;;1.88;0.57;;;25.40;62.20;;;;;;4898028;29;20040;-80
2022/07/28 12:35:20;;;;;;;1.08;0.20;;;25.20;63.90;;;;;;4889942;29;20060;-81
2022/07/28 12:37:47;;;;;;;1.40;0.10;;;25.30;63.00;;;;;;4889828;29;20043;-81
2022/07/28 12:40:16;;;;;;;0.50;0.10;;;25.00;61.80;;;;;;4911907;29;20076;-81
2022/07/28 12:42:43;;;;;;;1.00;0.10;;;24.70;62.80;;;;;;4867602;29;20051;-81
2022/07/28 12:45:09;;;;;;;0.50;0.20;;;24.60;62.70;;;;;;4867916;29;20132;-81
2022/07/28 12:47:36;;;;;;;1.92;0.10;;;24.40;62.80;;;;;;4868364;29;20082;-81
2022/07/28 12:50:18;;;;;;;1.52;0.17;;;24.20;64.40;;;;;;4868840;29;20037;-81
2022/07/28 12:53:02;;;;;;;0.75;0.10;;;24.20;64.70;;;;;;4867994;29;20063;-80
2022/07/28 12:55:29;;;;;;;1.20;0.10;;;24.30;64.80;;;;;;4876961;29;20037;-81
2022/07/28 12:57:55;;;;;;;0.52;0.20;;;24.70;65.00;;;;;;4866798;29;20056;-81